Airport METAR Information

LTBA 261220Z 23008KT 180V270 CAVOK 16/06 Q1007 NOSIG

VATSIM Livefeed

Card image cap

ATC Bookings

Position Full Name Date Time (UTC)
LTAI_APP Sebahattin Pekel 29/02/2020 1700 ‐ 2000

Card image cap

Active ATC

No controllers online

Blog

Read our latest news and get to know us better.